Terminal Aerodrome Forecast
Issued by NWS

Home | Current Version | Previous Version | Text Only | Print | Product List | Glossary On
Versions: 1 2 3 4 5 6 7 8 9 10 11 12 13 14
000
FTAK31 PAJN 222328
TAFAKT
TAF
PAKT 222328Z 2300/2324 14010KT 4SM BR VCSH SCT008 OVC015
     FM230600 15005KT 3SM -RA BR BKN007 OVC015
     FM231300 VRB04KT 4SM BR OVC015
     FM231900 14009KT 6SM -RA BR SCT015 OVC025
      AMD LTD TO CLD VIS AND WIND 2306/2315=

USA.gov is the U.S. government's official web portal to all federal, state and local government web resources and services.